Time;durP1;ratioP1;P1;durP2;ratioP2;P2;SDS_P1;SDS_P2;PMS_P1;PMS_P2;Temp;Humidity;BMP_temperature;BMP_pressure;BME280_temperature;BME280_humidity;BME280_pressure;Samples;Min_cycle;Max_cycle;Signal;HPM_P1;HPM_P2
2022/11/05 00:09:36;;;;;;;17.40;11.27;;;;;;;;;;5094187;28;20468;-74
2022/11/05 00:17:36;;;;;;;11.50;8.80;;;;;;;;;;5093902;28;20430;-73
2022/11/05 00:20:04;;;;;;;12.40;8.43;;;;;;;;;;5093975;28;20483;-74
2022/11/05 00:25:18;;;;;;;11.77;7.70;;;;;;;;;;5091199;28;20426;-74
2022/11/05 00:27:49;;;;;;;8.30;6.70;;;;;;;;;;5092567;28;20547;-74
2022/11/05 00:30:19;;;;;;;8.60;6.47;;;;;;;;;;5093784;28;20588;-73
2022/11/05 00:32:47;;;;;;;11.03;7.33;;;;;;;;;;5093535;28;20491;-73
2022/11/05 00:35:14;;;;;;;11.03;6.80;;;;;;;;;;5092786;28;20460;-74
2022/11/05 00:37:42;;;;;;;12.40;8.30;;;;;;;;;;5093456;28;20962;-74
2022/11/05 00:40:10;;;;;;;10.63;6.93;;;;;;;;;;5093649;28;20490;-74
2022/11/05 00:45:23;;;;;;;8.87;5.90;;;;;;;;;;5092711;28;20459;-74
2022/11/05 00:50:35;;;;;;;7.33;6.00;;;;;;;;;;5093237;28;20476;-74
2022/11/05 00:53:03;;;;;;;6.13;5.40;;;;;;;;;;5093063;28;20455;-74
2022/11/05 00:55:33;;;;;;;9.07;6.60;;;;;;;;;;5092372;28;20474;-74
2022/11/05 00:58:00;;;;;;;8.60;7.00;;;;;;;;;;5093273;28;20454;-74
2022/11/05 01:00:29;;;;;;;9.70;7.30;;;;;;;;;;5092939;28;20493;-74
2022/11/05 01:03:01;;;;;;;8.60;6.20;;;;;;;;;;5093104;28;20446;-74
2022/11/05 01:05:28;;;;;;;5.83;5.23;;;;;;;;;;5092097;28;20450;-74
2022/11/05 01:07:56;;;;;;;5.47;4.60;;;;;;;;;;5093118;28;20545;-74
2022/11/05 01:10:23;;;;;;;6.83;4.93;;;;;;;;;;5092858;28;20446;-74
2022/11/05 01:12:50;;;;;;;6.07;5.10;;;;;;;;;;5092859;28;20443;-73
2022/11/05 01:15:18;;;;;;;6.40;4.83;;;;;;;;;;5091984;28;20468;-73
2022/11/05 01:17:46;;;;;;;8.40;5.60;;;;;;;;;;5092701;28;20457;-73
2022/11/05 01:20:15;;;;;;;7.40;4.97;;;;;;;;;;5092644;28;20482;-74
2022/11/05 01:22:42;;;;;;;8.20;5.33;;;;;;;;;;5092681;28;20474;-73
2022/11/05 01:25:10;;;;;;;6.77;5.00;;;;;;;;;;5089475;28;20463;-74
2022/11/05 01:27:38;;;;;;;8.30;5.90;;;;;;;;;;5091002;28;20787;-74
2022/11/05 01:30:06;;;;;;;7.00;5.73;;;;;;;;;;5092846;28;20866;-74
2022/11/05 01:32:33;;;;;;;7.90;6.40;;;;;;;;;;5092508;28;20451;-74
2022/11/05 01:35:01;;;;;;;8.20;5.67;;;;;;;;;;5092073;28;20450;-74
2022/11/05 01:37:29;;;;;;;8.20;5.90;;;;;;;;;;5092271;28;20471;-74
2022/11/05 01:39:56;;;;;;;8.83;6.57;;;;;;;;;;5092518;28;20549;-74
2022/11/05 01:42:24;;;;;;;7.90;6.30;;;;;;;;;;5092891;28;20472;-73
2022/11/05 01:44:55;;;;;;;6.90;5.60;;;;;;;;;;5091682;28;20545;-74
2022/11/05 01:47:40;;;;;;;10.30;6.80;;;;;;;;;;5092288;28;20484;-74
2022/11/05 01:50:18;;;;;;;6.53;5.00;;;;;;;;;;5092361;28;20450;-73
2022/11/05 01:52:45;;;;;;;6.00;5.40;;;;;;;;;;5092345;28;20454;-74
2022/11/05 01:55:14;;;;;;;5.87;5.27;;;;;;;;;;5091632;28;20461;-74
2022/11/05 01:57:41;;;;;;;11.43;6.40;;;;;;;;;;5092136;28;20446;-74
2022/11/05 02:00:09;;;;;;;9.40;6.00;;;;;;;;;;5092353;28;20443;-73
2022/11/05 02:02:36;;;;;;;6.73;5.37;;;;;;;;;;5092075;28;20454;-73
2022/11/05 02:05:05;;;;;;;8.93;6.60;;;;;;;;;;5091708;28;20448;-73
2022/11/05 02:07:34;;;;;;;5.47;4.27;;;;;;;;;;5092252;28;20558;-74
2022/11/05 02:10:02;;;;;;;7.30;5.70;;;;;;;;;;5092117;28;20981;-74
2022/11/05 02:12:30;;;;;;;6.73;4.70;;;;;;;;;;5092106;28;20456;-74
2022/11/05 02:14:57;;;;;;;7.10;5.20;;;;;;;;;;5091561;28;20461;-73
2022/11/05 02:17:29;;;;;;;7.17;5.63;;;;;;;;;;5092779;28;20470;-74
2022/11/05 02:20:05;;;;;;;7.20;5.13;;;;;;;;;;5096114;28;20450;-73
2022/11/05 02:22:45;;;;;;;6.30;4.70;;;;;;;;;;5095994;28;20450;-74
2022/11/05 02:25:25;;;;;;;7.70;4.60;;;;;;;;;;5093094;28;20817;-74
2022/11/05 02:28:01;;;;;;;6.70;5.30;;;;;;;;;;5094647;28;20462;-73
2022/11/05 02:30:36;;;;;;;5.87;4.93;;;;;;;;;;5096008;28;20965;-74
2022/11/05 02:33:10;;;;;;;4.50;4.10;;;;;;;;;;5096047;28;20807;-74
2022/11/05 02:35:50;;;;;;;4.90;4.40;;;;;;;;;;5095206;28;20525;-74
2022/11/05 02:38:29;;;;;;;7.90;5.13;;;;;;;;;;5095812;28;20459;-74
2022/11/05 02:41:01;;;;;;;6.70;4.47;;;;;;;;;;5095743;28;20568;-74
2022/11/05 02:43:31;;;;;;;8.50;4.83;;;;;;;;;;5095097;28;20454;-74
2022/11/05 02:46:04;;;;;;;6.90;5.40;;;;;;;;;;5095774;28;20470;-74
2022/11/05 02:48:33;;;;;;;6.30;5.60;;;;;;;;;;5095555;28;20463;-74
2022/11/05 02:51:05;;;;;;;6.43;5.00;;;;;;;;;;5095693;28;20826;-73
2022/11/05 02:53:37;;;;;;;7.77;5.70;;;;;;;;;;5094842;28;20553;-74
2022/11/05 02:56:06;;;;;;;8.57;5.87;;;;;;;;;;5095391;28;21007;-73
2022/11/05 02:58:34;;;;;;;6.53;5.40;;;;;;;;;;5095363;28;20443;-73
2022/11/05 03:01:05;;;;;;;12.90;6.10;;;;;;;;;;5095384;28;20485;-73
2022/11/05 03:03:35;;;;;;;7.50;6.40;;;;;;;;;;5094891;28;20454;-73
2022/11/05 03:06:15;;;;;;;10.53;6.23;;;;;;;;;;5095178;28;20496;-73
2022/11/05 03:08:51;;;;;;;6.63;5.93;;;;;;;;;;5095267;28;20461;-73
2022/11/05 03:11:19;;;;;;;8.20;7.00;;;;;;;;;;5095293;28;20819;-73
2022/11/05 03:13:51;;;;;;;9.23;6.70;;;;;;;;;;5094430;28;20478;-73
2022/11/05 03:16:22;;;;;;;7.67;6.13;;;;;;;;;;5094961;28;20471;-74
2022/11/05 03:18:55;;;;;;;8.70;6.27;;;;;;;;;;5094901;28;20451;-74
2022/11/05 03:21:24;;;;;;;8.50;6.80;;;;;;;;;;5095329;28;20482;-74
2022/11/05 03:23:54;;;;;;;8.60;6.03;;;;;;;;;;5094253;28;20962;-74
2022/11/05 03:26:25;;;;;;;8.77;6.20;;;;;;;;;;5090995;28;20473;-74
2022/11/05 03:28:55;;;;;;;5.83;4.80;;;;;;;;;;5093633;28;20810;-75
2022/11/05 03:31:24;;;;;;;9.87;6.20;;;;;;;;;;5095038;28;20458;-74
2022/11/05 03:33:52;;;;;;;8.60;5.60;;;;;;;;;;5094307;28;20458;-74
2022/11/05 03:36:21;;;;;;;6.77;6.17;;;;;;;;;;5094597;28;20469;-74
2022/11/05 03:38:51;;;;;;;7.20;5.33;;;;;;;;;;5094746;28;20443;-74
2022/11/05 03:41:19;;;;;;;6.47;5.47;;;;;;;;;;5094731;28;20486;-74
2022/11/05 03:43:48;;;;;;;4.90;4.10;;;;;;;;;;5093923;28;20447;-74
2022/11/05 03:46:18;;;;;;;7.10;4.83;;;;;;;;;;5094615;28;20466;-74
2022/11/05 03:48:48;;;;;;;5.60;5.00;;;;;;;;;;5094505;28;20879;-75
2022/11/05 03:51:18;;;;;;;5.97;4.00;;;;;;;;;;5094876;28;20814;-74
2022/11/05 03:53:48;;;;;;;5.40;4.90;;;;;;;;;;5093837;28;20462;-74
2022/11/05 03:56:19;;;;;;;7.87;5.30;;;;;;;;;;5094309;28;20471;-73
2022/11/05 03:58:47;;;;;;;6.73;5.13;;;;;;;;;;5094373;28;20461;-74
2022/11/05 04:01:14;;;;;;;7.33;5.87;;;;;;;;;;5094296;28;20490;-74
2022/11/05 04:03:41;;;;;;;6.17;4.13;;;;;;;;;;5093576;28;20478;-74
2022/11/05 04:14:39;;;;;;;5.20;4.60;;;;;;;;;;5030947;28;20512;-74
2022/11/05 04:17:05;;;;;;;5.80;4.40;;;;;;;;;;5066466;28;20474;-74
2022/11/05 04:25:03;;;;;;;6.63;4.90;;;;;;;;;;5091613;28;20422;-73
2022/11/05 04:27:31;;;;;;;7.47;4.90;;;;;;;;;;5092744;28;20467;-74
2022/11/05 04:32:43;;;;;;;5.67;4.93;;;;;;;;;;5093956;28;20508;-74
2022/11/05 04:35:10;;;;;;;5.97;5.30;;;;;;;;;;5093189;28;20454;-74
2022/11/05 04:37:38;;;;;;;7.80;6.10;;;;;;;;;;5093481;28;20455;-74
2022/11/05 04:40:06;;;;;;;5.43;4.90;;;;;;;;;;5093136;28;20547;-74
2022/11/05 04:42:33;;;;;;;8.90;6.00;;;;;;;;;;5093566;28;21021;-74
2022/11/05 04:45:00;;;;;;;8.83;5.67;;;;;;;;;;5092850;28;20446;-75
2022/11/05 04:47:27;;;;;;;6.30;5.63;;;;;;;;;;5093389;28;20474;-74
2022/11/05 04:49:55;;;;;;;9.87;6.00;;;;;;;;;;5093462;28;20446;-74
2022/11/05 04:52:22;;;;;;;8.47;6.27;;;;;;;;;;5093437;28;20816;-74
2022/11/05 04:54:50;;;;;;;5.80;4.97;;;;;;;;;;5092570;28;20800;-73
2022/11/05 04:57:17;;;;;;;8.33;5.93;;;;;;;;;;5093235;28;20479;-73
2022/11/05 04:59:44;;;;;;;7.50;5.37;;;;;;;;;;5093160;28;20450;-73
2022/11/05 05:02:11;;;;;;;8.20;5.83;;;;;;;;;;5093220;28;21090;-73
2022/11/05 05:04:39;;;;;;;11.90;8.33;;;;;;;;;;5092478;28;20450;-73
2022/11/05 05:07:06;;;;;;;9.33;6.50;;;;;;;;;;5093000;28;21002;-73
2022/11/05 05:09:33;;;;;;;8.67;6.43;;;;;;;;;;5093074;28;20451;-74
2022/11/05 05:12:01;;;;;;;7.50;5.73;;;;;;;;;;5093099;28;20442;-74
2022/11/05 05:14:28;;;;;;;9.50;6.60;;;;;;;;;;5092188;28;20463;-74
2022/11/05 05:16:56;;;;;;;6.90;5.10;;;;;;;;;;5092718;28;20475;-74
2022/11/05 05:19:24;;;;;;;7.63;5.50;;;;;;;;;;5092834;28;20537;-74
2022/11/05 05:21:50;;;;;;;9.03;5.60;;;;;;;;;;5092666;28;20483;-74
2022/11/05 05:24:19;;;;;;;7.00;5.60;;;;;;;;;;5090517;28;20455;-74
2022/11/05 05:26:48;;;;;;;5.30;4.80;;;;;;;;;;5091319;28;21059;-74
2022/11/05 05:29:17;;;;;;;8.47;4.87;;;;;;;;;;5092905;28;20461;-74
2022/11/05 05:31:44;;;;;;;6.33;5.20;;;;;;;;;;5092672;28;20443;-74
2022/11/05 05:34:12;;;;;;;7.73;5.33;;;;;;;;;;5092056;28;20457;-73
2022/11/05 05:36:39;;;;;;;10.90;6.03;;;;;;;;;;5092594;28;20988;-74
2022/11/05 05:39:07;;;;;;;8.80;5.97;;;;;;;;;;5092563;28;20453;-73
2022/11/05 05:41:34;;;;;;;8.20;5.33;;;;;;;;;;5092355;28;20495;-73
2022/11/05 05:44:01;;;;;;;8.63;5.40;;;;;;;;;;5091978;28;20450;-73
2022/11/05 05:46:30;;;;;;;9.70;5.50;;;;;;;;;;5092398;28;20492;-73
2022/11/05 05:48:57;;;;;;;6.70;4.47;;;;;;;;;;5092539;28;20966;-73
2022/11/05 05:51:24;;;;;;;6.07;4.90;;;;;;;;;;5092184;28;20450;-73
2022/11/05 05:53:52;;;;;;;4.93;4.27;;;;;;;;;;5091221;28;20446;-74
2022/11/05 05:56:19;;;;;;;10.00;7.27;;;;;;;;;;5092304;28;20501;-74
2022/11/05 05:58:47;;;;;;;6.03;5.00;;;;;;;;;;5092380;28;20451;-74
2022/11/05 06:01:15;;;;;;;6.00;5.07;;;;;;;;;;5092242;28;20962;-74
2022/11/05 06:03:43;;;;;;;8.10;5.10;;;;;;;;;;5091710;28;20462;-73
2022/11/05 06:06:11;;;;;;;13.43;9.00;;;;;;;;;;5092224;28;20493;-73
2022/11/05 06:08:39;;;;;;;17.83;11.03;;;;;;;;;;5092238;28;20458;-73
2022/11/05 06:11:06;;;;;;;15.73;10.13;;;;;;;;;;5089177;28;20454;-74
2022/11/05 06:13:34;;;;;;;15.57;11.03;;;;;;;;;;5088708;28;20455;-73
2022/11/05 06:16:02;;;;;;;11.50;8.70;;;;;;;;;;5091132;28;20991;-73
2022/11/05 06:18:29;;;;;;;11.23;6.97;;;;;;;;;;5092137;28;20951;-73
2022/11/05 06:21:01;;;;;;;9.97;7.60;;;;;;;;;;5092120;28;20457;-73
2022/11/05 06:23:28;;;;;;;7.07;6.33;;;;;;;;;;5091390;28;20513;-74
2022/11/05 06:25:56;;;;;;;7.33;6.50;;;;;;;;;;5088825;28;20482;-73
2022/11/05 06:28:23;;;;;;;9.10;6.43;;;;;;;;;;5091958;28;20873;-73
2022/11/05 06:30:51;;;;;;;12.00;7.20;;;;;;;;;;5091975;28;20457;-73
2022/11/05 06:33:18;;;;;;;10.67;7.10;;;;;;;;;;5091635;28;20459;-73
2022/11/05 06:35:45;;;;;;;9.50;5.63;;;;;;;;;;5090927;28;21050;-73
2022/11/05 06:38:14;;;;;;;11.00;7.50;;;;;;;;;;5091890;28;20454;-73
2022/11/05 06:40:41;;;;;;;7.33;5.67;;;;;;;;;;5090970;28;20474;-73
2022/11/05 06:43:08;;;;;;;10.73;5.80;;;;;;;;;;5091662;28;20490;-73
2022/11/05 06:45:35;;;;;;;8.27;5.80;;;;;;;;;;5091025;28;20479;-73
2022/11/05 06:48:02;;;;;;;7.60;6.13;;;;;;;;;;5091807;28;20990;-74
2022/11/05 06:50:30;;;;;;;8.90;5.80;;;;;;;;;;5091622;28;20457;-73
2022/11/05 06:52:57;;;;;;;6.20;5.20;;;;;;;;;;5091427;28;20451;-73
2022/11/05 06:55:26;;;;;;;5.83;4.47;;;;;;;;;;5091054;28;20446;-73
2022/11/05 06:57:54;;;;;;;7.03;5.30;;;;;;;;;;5091471;28;20451;-73
2022/11/05 07:00:21;;;;;;;10.67;5.00;;;;;;;;;;5091809;28;20454;-73
2022/11/05 07:02:48;;;;;;;6.10;4.57;;;;;;;;;;5091413;28;20485;-73
2022/11/05 07:05:16;;;;;;;7.57;4.87;;;;;;;;;;5094688;28;20451;-73
2022/11/05 07:07:44;;;;;;;4.87;4.27;;;;;;;;;;5094794;28;20454;-73
2022/11/05 07:10:12;;;;;;;5.33;4.70;;;;;;;;;;5095185;28;20457;-74
2022/11/05 07:12:41;;;;;;;6.80;5.37;;;;;;;;;;5094829;28;20443;-73
2022/11/05 07:15:08;;;;;;;9.53;5.60;;;;;;;;;;5094360;28;20558;-74
2022/11/05 07:17:36;;;;;;;7.83;4.73;;;;;;;;;;5094964;28;20457;-74
2022/11/05 07:20:03;;;;;;;6.20;4.43;;;;;;;;;;5094919;28;20451;-74
2022/11/05 07:22:30;;;;;;;6.63;5.10;;;;;;;;;;5094661;28;20583;-74
2022/11/05 07:24:57;;;;;;;7.83;5.07;;;;;;;;;;5092899;28;20451;-74
2022/11/05 07:27:24;;;;;;;6.57;4.73;;;;;;;;;;5093559;28;20466;-73
2022/11/05 07:29:53;;;;;;;4.90;3.73;;;;;;;;;;5094695;28;20461;-74
2022/11/05 07:32:20;;;;;;;6.80;4.97;;;;;;;;;;5094627;28;20446;-73
2022/11/05 07:34:47;;;;;;;5.23;3.70;;;;;;;;;;5094182;28;20473;-74
2022/11/05 07:37:15;;;;;;;5.80;4.60;;;;;;;;;;5094525;28;20473;-74
2022/11/05 07:39:42;;;;;;;4.57;4.07;;;;;;;;;;5094415;28;20916;-73
2022/11/05 07:42:12;;;;;;;8.10;4.87;;;;;;;;;;5094194;28;20895;-73
2022/11/05 07:44:39;;;;;;;13.90;4.53;;;;;;;;;;5093854;28;20457;-74
2022/11/05 07:47:07;;;;;;;10.13;4.60;;;;;;;;;;5094521;28;20467;-74
2022/11/05 07:49:34;;;;;;;6.33;4.83;;;;;;;;;;5094282;28;20455;-74
2022/11/05 07:52:02;;;;;;;6.67;4.00;;;;;;;;;;5094083;28;20944;-74
2022/11/05 07:54:29;;;;;;;6.37;4.27;;;;;;;;;;5093755;28;20457;-74
2022/11/05 07:56:56;;;;;;;5.67;3.60;;;;;;;;;;5094394;28;20478;-75
2022/11/05 07:59:23;;;;;;;6.37;4.37;;;;;;;;;;5094233;28;20454;-74
2022/11/05 08:01:50;;;;;;;8.23;4.80;;;;;;;;;;5093757;28;20478;-74
2022/11/05 08:04:19;;;;;;;5.67;5.00;;;;;;;;;;5093575;28;20451;-74
2022/11/05 08:06:46;;;;;;;7.47;4.10;;;;;;;;;;5094174;28;20477;-74
2022/11/05 08:09:14;;;;;;;4.50;3.17;;;;;;;;;;5094214;28;20981;-75
2022/11/05 08:11:41;;;;;;;6.00;3.70;;;;;;;;;;5094158;28;20455;-73
2022/11/05 08:14:08;;;;;;;5.30;3.60;;;;;;;;;;5093711;28;20480;-74
2022/11/05 08:16:35;;;;;;;4.30;3.73;;;;;;;;;;5093122;28;20471;-74
2022/11/05 08:19:03;;;;;;;5.03;3.60;;;;;;;;;;5094145;28;20447;-74
2022/11/05 08:21:32;;;;;;;6.40;3.80;;;;;;;;;;5094394;28;20454;-74
2022/11/05 08:23:59;;;;;;;9.37;3.60;;;;;;;;;;5093523;28;20848;-74
2022/11/05 08:26:26;;;;;;;5.30;3.70;;;;;;;;;;5091138;28;20476;-74
2022/11/05 08:28:53;;;;;;;5.87;3.97;;;;;;;;;;5094029;28;20442;-74
2022/11/05 08:31:20;;;;;;;4.07;3.67;;;;;;;;;;5093893;28;20455;-74
2022/11/05 08:33:47;;;;;;;5.50;3.87;;;;;;;;;;5093220;28;20439;-74
2022/11/05 08:36:14;;;;;;;12.27;5.13;;;;;;;;;;5093704;28;20842;-74
2022/11/05 08:38:43;;;;;;;6.23;5.10;;;;;;;;;;5093526;28;20450;-74
2022/11/05 08:41:10;;;;;;;11.20;5.70;;;;;;;;;;5093780;28;20447;-74
2022/11/05 08:43:37;;;;;;;6.60;5.27;;;;;;;;;;5092952;28;20852;-74
2022/11/05 08:46:04;;;;;;;6.87;4.13;;;;;;;;;;5093344;28;20481;-74
2022/11/05 08:48:31;;;;;;;6.40;4.33;;;;;;;;;;5092546;28;20473;-74
2022/11/05 08:51:00;;;;;;;8.30;4.60;;;;;;;;;;5091103;28;20895;-74
2022/11/05 08:53:28;;;;;;;7.73;5.43;;;;;;;;;;5092654;28;20488;-74
2022/11/05 08:55:59;;;;;;;8.50;5.93;;;;;;;;;;5092984;28;20481;-73
2022/11/05 08:58:26;;;;;;;9.03;4.77;;;;;;;;;;5093050;28;20817;-74
2022/11/05 09:00:53;;;;;;;7.27;5.30;;;;;;;;;;5093137;28;20455;-74
2022/11/05 09:03:21;;;;;;;7.67;4.47;;;;;;;;;;5092815;28;21018;-74
2022/11/05 09:05:48;;;;;;;4.67;4.20;;;;;;;;;;5092698;28;20472;-74
2022/11/05 09:08:16;;;;;;;7.17;4.90;;;;;;;;;;5071727;28;20477;-74
2022/11/05 09:10:44;;;;;;;5.13;3.83;;;;;;;;;;5084850;28;20471;-74
2022/11/05 09:13:12;;;;;;;11.33;5.90;;;;;;;;;;5090508;28;20443;-74
2022/11/05 09:15:39;;;;;;;7.10;4.90;;;;;;;;;;5088688;28;20728;-74
2022/11/05 09:18:07;;;;;;;8.47;4.47;;;;;;;;;;5091350;28;20451;-74
2022/11/05 09:20:35;;;;;;;7.13;5.40;;;;;;;;;;5090999;28;20447;-74
2022/11/05 09:23:02;;;;;;;6.47;5.77;;;;;;;;;;5090913;28;20517;-74
2022/11/05 09:25:29;;;;;;;9.23;6.17;;;;;;;;;;5089203;28;20451;-75
2022/11/05 09:28:05;;;;;;;9.23;6.60;;;;;;;;;;5091517;28;20944;-73
2022/11/05 09:30:34;;;;;;;7.30;5.50;;;;;;;;;;5091052;28;20450;-74
2022/11/05 09:33:01;;;;;;;8.13;4.33;;;;;;;;;;5092324;28;20460;-74
2022/11/05 09:35:28;;;;;;;5.30;3.63;;;;;;;;;;5091830;28;20561;-74
2022/11/05 09:37:55;;;;;;;7.07;4.57;;;;;;;;;;5089561;28;20455;-74
2022/11/05 09:40:22;;;;;;;5.47;3.80;;;;;;;;;;5091462;28;20446;-74
2022/11/05 09:42:53;;;;;;;4.60;3.93;;;;;;;;;;5091813;28;20504;-74
2022/11/05 09:45:22;;;;;;;6.57;4.63;;;;;;;;;;5091598;28;20470;-74
2022/11/05 09:47:52;;;;;;;4.97;4.20;;;;;;;;;;5092084;28;20454;-74
2022/11/05 09:50:21;;;;;;;6.17;5.43;;;;;;;;;;5092074;28;20451;-74
2022/11/05 09:52:48;;;;;;;6.63;4.90;;;;;;;;;;5091969;28;20921;-74
2022/11/05 09:55:19;;;;;;;7.03;5.40;;;;;;;;;;5091779;28;20446;-74
2022/11/05 09:57:49;;;;;;;4.50;3.77;;;;;;;;;;5091878;28;20462;-74
2022/11/05 10:00:17;;;;;;;5.30;4.70;;;;;;;;;;5092201;28;20462;-74
2022/11/05 10:02:48;;;;;;;6.47;5.00;;;;;;;;;;5091460;28;20493;-74
2022/11/05 10:05:17;;;;;;;6.90;4.30;;;;;;;;;;5092033;28;20496;-74
2022/11/05 10:07:48;;;;;;;8.90;6.63;;;;;;;;;;5091890;28;20450;-74
2022/11/05 10:10:22;;;;;;;9.33;5.07;;;;;;;;;;5092071;28;20907;-74
2022/11/05 10:12:51;;;;;;;5.53;4.87;;;;;;;;;;5091949;28;20451;-73
2022/11/05 10:15:21;;;;;;;7.07;5.60;;;;;;;;;;5091320;28;20455;-73
2022/11/05 10:17:49;;;;;;;5.80;4.50;;;;;;;;;;5092224;28;21076;-73
2022/11/05 10:20:22;;;;;;;8.00;5.43;;;;;;;;;;5092165;28;20549;-73
2022/11/05 10:22:50;;;;;;;6.40;5.30;;;;;;;;;;5091816;28;20508;-73
2022/11/05 10:25:19;;;;;;;5.27;4.40;;;;;;;;;;5090017;28;20787;-72
2022/11/05 10:27:50;;;;;;;6.70;6.00;;;;;;;;;;5069821;28;20460;-72
2022/11/05 10:30:17;;;;;;;8.97;5.93;;;;;;;;;;5070699;28;20979;-71
2022/11/05 10:32:46;;;;;;;7.77;6.43;;;;;;;;;;5070381;28;20451;-72
2022/11/05 10:35:17;;;;;;;8.80;7.50;;;;;;;;;;5081977;28;20540;-72
2022/11/05 10:37:46;;;;;;;7.87;5.80;;;;;;;;;;5090888;28;20508;-72
2022/11/05 10:40:16;;;;;;;7.00;5.37;;;;;;;;;;5094283;28;20465;-71
2022/11/05 10:42:51;;;;;;;7.47;5.80;;;;;;;;;;5074004;28;20956;-72
2022/11/05 10:45:26;;;;;;;6.50;5.20;;;;;;;;;;5073985;28;20447;-71
2022/11/05 10:47:57;;;;;;;7.27;6.30;;;;;;;;;;5078521;28;20830;-71
2022/11/05 10:50:25;;;;;;;10.63;5.10;;;;;;;;;;5094284;28;20450;-71
2022/11/05 10:52:56;;;;;;;6.60;5.10;;;;;;;;;;5094232;28;20453;-72
2022/11/05 10:55:24;;;;;;;8.30;6.00;;;;;;;;;;5093355;28;20443;-72
2022/11/05 10:57:52;;;;;;;9.90;5.50;;;;;;;;;;5093996;28;20457;-71
2022/11/05 11:00:24;;;;;;;9.57;7.77;;;;;;;;;;5094135;28;20445;-71
2022/11/05 11:02:52;;;;;;;8.47;6.70;;;;;;;;;;5093416;28;20447;-72
2022/11/05 11:05:20;;;;;;;8.83;6.40;;;;;;;;;;5093166;28;20450;-72
2022/11/05 11:07:53;;;;;;;8.70;7.70;;;;;;;;;;5093930;28;20957;-72
2022/11/05 11:10:23;;;;;;;7.97;5.80;;;;;;;;;;5094588;28;20454;-72
2022/11/05 11:12:51;;;;;;;10.27;6.20;;;;;;;;;;5094774;28;20472;-72
2022/11/05 11:15:23;;;;;;;6.20;5.17;;;;;;;;;;5094324;28;20519;-71
2022/11/05 11:17:50;;;;;;;7.53;6.73;;;;;;;;;;5095010;28;20446;-72
2022/11/05 11:20:25;;;;;;;6.77;6.10;;;;;;;;;;5095045;28;20457;-72
2022/11/05 11:23:11;;;;;;;8.83;5.90;;;;;;;;;;5095088;28;20450;-72
2022/11/05 11:25:42;;;;;;;7.10;5.87;;;;;;;;;;5092269;28;20477;-71
2022/11/05 11:28:15;;;;;;;9.10;6.27;;;;;;;;;;5094971;28;20815;-72
2022/11/05 11:30:47;;;;;;;7.53;6.47;;;;;;;;;;5095055;28;20450;-72
2022/11/05 11:33:15;;;;;;;6.73;5.73;;;;;;;;;;5094718;28;20446;-71
2022/11/05 11:35:46;;;;;;;8.90;6.27;;;;;;;;;;5094177;28;20834;-72
2022/11/05 11:38:15;;;;;;;8.37;7.57;;;;;;;;;;5094892;28;20915;-71
2022/11/05 11:40:43;;;;;;;8.97;7.43;;;;;;;;;;5094566;28;20458;-71
2022/11/05 11:43:16;;;;;;;8.07;6.70;;;;;;;;;;5094414;28;20458;-71
2022/11/05 11:45:46;;;;;;;9.70;7.70;;;;;;;;;;5094340;28;20473;-72
2022/11/05 11:48:16;;;;;;;9.33;7.77;;;;;;;;;;5094471;28;20461;-72
2022/11/05 11:50:44;;;;;;;9.63;8.27;;;;;;;;;;5093244;28;20457;-72
2022/11/05 11:53:18;;;;;;;12.00;10.20;;;;;;;;;;5094544;28;20790;-71
2022/11/05 11:55:57;;;;;;;10.10;8.60;;;;;;;;;;5093897;28;20504;-72
2022/11/05 11:58:25;;;;;;;7.60;6.37;;;;;;;;;;5094474;28;20454;-72
2022/11/05 12:00:56;;;;;;;12.87;7.30;;;;;;;;;;5094269;28;20447;-72
2022/11/05 12:03:26;;;;;;;6.60;6.00;;;;;;;;;;5094021;28;20482;-72
2022/11/05 12:05:56;;;;;;;8.40;7.40;;;;;;;;;;5094024;28;20470;-72
2022/11/05 12:08:29;;;;;;;11.53;10.33;;;;;;;;;;5094315;28;20816;-72
2022/11/05 12:11:04;;;;;;;11.07;8.90;;;;;;;;;;5094088;28;20450;-73
2022/11/05 12:13:37;;;;;;;7.50;6.57;;;;;;;;;;5093560;28;20454;-73
2022/11/05 12:16:08;;;;;;;8.63;7.47;;;;;;;;;;5093836;28;20496;-72
2022/11/05 12:18:40;;;;;;;8.57;6.43;;;;;;;;;;5093907;28;20446;-72
2022/11/05 12:21:09;;;;;;;7.27;6.50;;;;;;;;;;5093982;28;20450;-72
2022/11/05 12:23:51;;;;;;;6.57;5.90;;;;;;;;;;5093232;28;20490;-73
2022/11/05 12:26:24;;;;;;;5.63;5.13;;;;;;;;;;5079519;28;20569;-72
2022/11/05 12:28:56;;;;;;;6.53;5.30;;;;;;;;;;5093693;28;20545;-72
2022/11/05 12:31:27;;;;;;;7.60;6.53;;;;;;;;;;5093816;28;20454;-72
2022/11/05 12:33:57;;;;;;;7.93;6.70;;;;;;;;;;5093087;28;20813;-72
2022/11/05 12:36:37;;;;;;;8.43;6.33;;;;;;;;;;5093533;28;20474;-72
2022/11/05 12:39:18;;;;;;;8.00;6.27;;;;;;;;;;5093629;28;20438;-73
2022/11/05 12:41:53;;;;;;;6.13;5.40;;;;;;;;;;5093507;28;20955;-72
2022/11/05 12:44:26;;;;;;;7.10;6.10;;;;;;;;;;5092950;28;20490;-72
2022/11/05 12:46:59;;;;;;;10.17;6.50;;;;;;;;;;5093470;28;20477;-72
2022/11/05 12:49:32;;;;;;;10.20;7.70;;;;;;;;;;5093376;28;20454;-73
2022/11/05 12:52:09;;;;;;;6.63;5.93;;;;;;;;;;5093358;28;20462;-72
2022/11/05 12:54:44;;;;;;;7.77;6.27;;;;;;;;;;5092737;28;20448;-72
2022/11/05 12:57:13;;;;;;;9.00;7.20;;;;;;;;;;5093326;28;20484;-72
2022/11/05 12:59:42;;;;;;;10.00;8.73;;;;;;;;;;5092959;28;20446;-73
2022/11/05 13:02:16;;;;;;;8.43;7.60;;;;;;;;;;5092888;28;20455;-72
2022/11/05 13:04:47;;;;;;;8.80;7.40;;;;;;;;;;5092849;28;20488;-72
2022/11/05 13:07:16;;;;;;;10.50;7.87;;;;;;;;;;5093064;28;20470;-73
2022/11/05 13:09:45;;;;;;;9.90;7.83;;;;;;;;;;5092943;28;20457;-72
2022/11/05 13:12:15;;;;;;;8.10;7.30;;;;;;;;;;5093103;28;20521;-72
2022/11/05 13:14:45;;;;;;;11.20;8.50;;;;;;;;;;5092415;28;20463;-73
2022/11/05 13:17:14;;;;;;;11.43;8.33;;;;;;;;;;5092997;28;20471;-72
2022/11/05 13:19:43;;;;;;;7.93;7.07;;;;;;;;;;5092749;28;20450;-72
2022/11/05 13:22:14;;;;;;;9.03;7.97;;;;;;;;;;5092900;28;20450;-72
2022/11/05 13:24:46;;;;;;;8.10;6.73;;;;;;;;;;5090225;28;20488;-73
2022/11/05 13:27:22;;;;;;;5.33;4.90;;;;;;;;;;5092723;28;20474;-72
2022/11/05 13:29:50;;;;;;;7.37;5.30;;;;;;;;;;5092798;28;20454;-72
2022/11/05 13:32:23;;;;;;;11.37;7.53;;;;;;;;;;5092535;28;20447;-72
2022/11/05 13:34:50;;;;;;;10.67;7.40;;;;;;;;;;5092199;28;20924;-72
2022/11/05 13:40:08;;;;;;;4.50;4.10;;;;;;;;;;5092662;28;20446;-72
2022/11/05 13:42:50;;;;;;;10.40;7.23;;;;;;;;;;5092577;28;21004;-72
2022/11/05 13:45:24;;;;;;;12.97;7.73;;;;;;;;;;5092179;28;20494;-72
2022/11/05 13:48:07;;;;;;;11.77;7.60;;;;;;;;;;5092483;28;20548;-72
2022/11/05 13:50:45;;;;;;;10.57;8.30;;;;;;;;;;5090553;28;20503;-72
2022/11/05 13:53:30;;;;;;;7.40;6.60;;;;;;;;;;5092605;28;20834;-71
2022/11/05 13:56:02;;;;;;;6.53;4.83;;;;;;;;;;5092290;28;20833;-72
2022/11/05 13:58:45;;;;;;;8.70;5.50;;;;;;;;;;5092321;28;20447;-72
2022/11/05 14:01:17;;;;;;;6.50;3.50;;;;;;;;;;5092574;28;20450;-71
2022/11/05 14:03:46;;;;;;;3.77;3.00;;;;;;;;;;5091829;28;20457;-72
2022/11/05 14:06:13;;;;;;;5.40;3.53;;;;;;;;;;5092284;28;20474;-72
2022/11/05 14:08:42;;;;;;;5.30;3.07;;;;;;;;;;5092101;28;20450;-72
2022/11/05 14:11:18;;;;;;;3.53;3.03;;;;;;;;;;5092368;28;20454;-71
2022/11/05 14:13:50;;;;;;;8.27;4.70;;;;;;;;;;5093021;28;20458;-72
2022/11/05 14:16:19;;;;;;;6.43;3.50;;;;;;;;;;5096236;28;20587;-71
2022/11/05 14:18:46;;;;;;;7.60;3.27;;;;;;;;;;5096373;28;20462;-72
2022/11/05 14:21:30;;;;;;;6.10;3.83;;;;;;;;;;5095977;28;20446;-72
2022/11/05 14:23:58;;;;;;;9.77;5.00;;;;;;;;;;5095240;28;20460;-72
2022/11/05 14:26:26;;;;;;;5.53;3.70;;;;;;;;;;5093521;28;20669;-72
2022/11/05 14:29:11;;;;;;;3.87;3.47;;;;;;;;;;5096184;27;20474;-72
2022/11/05 14:31:54;;;;;;;3.43;3.07;;;;;;;;;;5096114;28;20936;-72
2022/11/05 14:34:23;;;;;;;3.40;2.30;;;;;;;;;;5094863;28;20491;-72
2022/11/05 14:37:14;;;;;;;3.83;3.07;;;;;;;;;;5096224;28;20470;-72
2022/11/05 14:39:41;;;;;;;4.03;3.33;;;;;;;;;;5095999;28;20458;-72
2022/11/05 14:42:12;;;;;;;4.40;3.60;;;;;;;;;;5096117;28;20461;-72
2022/11/05 14:44:54;;;;;;;6.73;4.70;;;;;;;;;;5095122;28;20850;-72
2022/11/05 14:47:24;;;;;;;3.80;3.03;;;;;;;;;;5095820;28;20988;-72
2022/11/05 14:49:53;;;;;;;4.50;4.10;;;;;;;;;;5095926;28;20806;-72
2022/11/05 14:52:21;;;;;;;4.50;3.40;;;;;;;;;;5095661;28;20449;-72
2022/11/05 14:54:49;;;;;;;3.90;3.50;;;;;;;;;;5094989;28;20446;-72
2022/11/05 14:57:36;;;;;;;4.53;3.23;;;;;;;;;;5095606;28;20477;-72
2022/11/05 15:00:05;;;;;;;3.87;3.10;;;;;;;;;;5095528;28;20469;-72
2022/11/05 15:02:35;;;;;;;3.53;2.90;;;;;;;;;;5095512;28;20458;-73
2022/11/05 15:05:21;;;;;;;2.60;2.10;;;;;;;;;;5094996;28;21003;-72
2022/11/05 15:07:56;;;;;;;5.00;3.70;;;;;;;;;;5095407;28;20616;-72
2022/11/05 15:10:27;;;;;;;8.20;5.57;;;;;;;;;;5095410;28;20456;-72
2022/11/05 15:12:55;;;;;;;9.03;6.57;;;;;;;;;;5095371;28;20443;-72
2022/11/05 15:15:24;;;;;;;7.17;5.40;;;;;;;;;;5094569;28;20462;-73
2022/11/05 15:18:04;;;;;;;8.90;6.27;;;;;;;;;;5095331;28;20786;-72
2022/11/05 15:20:35;;;;;;;5.47;4.77;;;;;;;;;;5095163;28;20962;-72
2022/11/05 15:23:04;;;;;;;7.07;4.87;;;;;;;;;;5095452;28;20905;-72
2022/11/05 15:25:36;;;;;;;6.70;4.50;;;;;;;;;;5092074;28;20496;-73
2022/11/05 15:28:05;;;;;;;7.93;5.60;;;;;;;;;;5095137;28;20823;-72
2022/11/05 15:30:32;;;;;;;5.40;4.50;;;;;;;;;;5095224;28;20454;-72
2022/11/05 15:33:10;;;;;;;3.47;2.67;;;;;;;;;;5094940;28;20453;-72
2022/11/05 15:35:41;;;;;;;5.57;4.67;;;;;;;;;;5094192;28;20474;-72
2022/11/05 15:38:23;;;;;;;6.17;4.73;;;;;;;;;;5095048;28;20521;-72